Time;durP1;ratioP1;P1;durP2;ratioP2;P2;SDS_P1;SDS_P2;PMS_P1;PMS_P2;Temp;Humidity;BMP_temperature;BMP_pressure;BME280_temperature;BME280_humidity;BME280_pressure;Samples;Min_cycle;Max_cycle;Signal;HPM_P1;HPM_P2
2021/12/01 00:00:34;;;;;;;1.38;0.50;;;;;;;6.33;74.16;99347.34;1086909;54;20069;-83
2021/12/01 00:01:41;;;;;;;1.58;0.40;;;;;;;6.32;74.29;99342.19;1086942;54;20090;-83
2021/12/01 00:02:43;;;;;;;1.83;0.50;;;;;;;6.34;74.01;99343.72;1087040;54;20065;-82
2021/12/01 00:03:48;;;;;;;2.25;0.80;;;;;;;6.37;74.37;99340.81;1092408;31;20627;-83
2021/12/01 00:04:49;;;;;;;1.95;0.60;;;;;;;6.49;74.01;99332.75;1086995;54;20677;-81
2021/12/01 00:05:54;;;;;;;1.20;0.50;;;;;;;6.36;74.39;99343.59;1087515;39;20638;-81
2021/12/01 00:06:58;;;;;;;1.10;0.50;;;;;;;6.33;74.74;99339.38;1087479;46;20014;-80
2021/12/01 00:08:01;;;;;;;2.00;0.60;;;;;;;6.28;74.64;99333.66;1086947;54;20030;-81
2021/12/01 00:09:07;;;;;;;1.05;0.38;;;;;;;6.36;74.77;99335.66;1087080;54;20053;-82
2021/12/01 00:10:09;;;;;;;1.33;0.60;;;;;;;6.37;74.74;99330.19;1087301;54;20053;-80
2021/12/01 00:11:13;;;;;;;1.42;0.60;;;;;;;6.42;74.53;99328.97;1087126;54;20042;-83
2021/12/01 00:12:15;;;;;;;0.80;0.40;;;;;;;6.35;74.52;99326.81;1087173;54;20736;-80
2021/12/01 00:13:22;;;;;;;2.40;0.80;;;;;;;6.38;74.63;99337.19;1087053;54;20071;-82
2021/12/01 00:14:23;;;;;;;1.25;0.50;;;;;;;6.43;74.66;99325.28;1087153;54;20034;-82
2021/12/01 00:15:27;;;;;;;1.75;0.60;;;;;;;6.43;74.67;99327.94;1087192;54;20565;-81
2021/12/01 00:16:32;;;;;;;1.20;0.50;;;;;;;6.37;74.67;99314.25;1087129;54;20051;-82
2021/12/01 00:17:36;;;;;;;1.20;0.40;;;;;;;6.36;74.56;99312.56;1088725;39;20534;-81
2021/12/01 00:18:41;;;;;;;1.30;0.50;;;;;;;6.43;74.91;99315.53;1087225;54;20639;-80
2021/12/01 00:19:43;;;;;;;1.63;0.50;;;;;;;6.34;75.00;99317.19;1087393;54;20065;-82
2021/12/01 00:20:48;;;;;;;2.10;0.63;;;;;;;6.38;75.06;99318.59;1087319;54;20110;-80
2021/12/01 00:21:52;;;;;;;1.85;0.63;;;;;;;6.38;74.91;99312.44;1087309;54;20030;-81
2021/12/01 00:22:55;;;;;;;1.40;0.52;;;;;;;6.27;75.05;99312.56;1088278;46;20042;-80
2021/12/01 00:24:00;;;;;;;1.23;0.50;;;;;;;6.34;75.27;99319.84;1087268;54;20094;-81
2021/12/01 00:25:03;;;;;;;1.45;0.60;;;;;;;6.28;75.41;99309.75;1087258;54;20030;-81
2021/12/01 00:26:08;;;;;;;2.00;0.70;;;;;;;6.34;74.99;99317.19;1086980;39;20544;-80
2021/12/01 00:27:09;;;;;;;0.45;0.30;;;;;;;6.43;75.25;99306.72;1086971;54;20042;-81
2021/12/01 00:28:14;;;;;;;1.48;0.52;;;;;;;6.46;75.11;99312.63;1088047;39;20540;-80
2021/12/01 00:29:15;;;;;;;1.45;0.65;;;;;;;6.31;75.33;99309.50;1087072;54;20062;-81
2021/12/01 00:30:21;;;;;;;1.23;0.50;;;;;;;6.34;75.50;99308.38;1087191;54;20035;-81
2021/12/01 00:31:22;;;;;;;1.35;0.50;;;;;;;6.29;75.30;99303.47;1087149;54;20046;-80
2021/12/01 00:32:28;;;;;;;1.85;0.63;;;;;;;6.33;75.47;99304.03;1087165;54;20038;-80
2021/12/01 00:33:33;;;;;;;2.53;0.60;;;;;;;6.27;75.82;99302.78;1086942;54;20046;-81
2021/12/01 00:34:38;;;;;;;1.52;0.47;;;;;;;6.29;75.83;99298.16;1087029;54;20043;-79
2021/12/01 00:35:40;;;;;;;1.63;0.50;;;;;;;6.32;75.76;99305.88;1087144;54;20030;-80
2021/12/01 00:36:44;;;;;;;1.52;0.50;;;;;;;6.22;76.14;99303.19;1087104;54;20034;-81
2021/12/01 00:37:46;;;;;;;2.10;0.52;;;;;;;6.24;76.31;99300.38;1088998;39;20575;-81
2021/12/01 00:38:50;;;;;;;1.50;0.57;;;;;;;6.23;76.39;99298.72;1088690;39;20539;-80
2021/12/01 00:39:53;;;;;;;1.52;0.50;;;;;;;6.19;76.82;99294.66;1087525;54;20037;-80
2021/12/01 00:40:57;;;;;;;1.52;0.50;;;;;;;6.15;77.03;99293.22;1087549;54;20069;-78
2021/12/01 00:42:00;;;;;;;1.17;0.40;;;;;;;6.20;77.34;99293.69;1087800;54;20050;-82
2021/12/01 00:43:04;;;;;;;1.05;0.50;;;;;;;6.18;77.35;99298.28;1087802;54;20042;-83
2021/12/01 00:44:07;;;;;;;1.80;0.75;;;;;;;6.34;76.77;99293.28;1087657;54;20034;-80
2021/12/01 00:45:17;;;;;;;2.30;0.57;;;;;;;6.22;77.60;99292.56;1089036;39;20374;-82
2021/12/01 00:46:24;;;;;;;2.33;0.63;;;;;;;6.06;78.23;99294.88;1087713;54;20049;-82
2021/12/01 00:47:41;;;;;;;1.17;0.50;;;;;;;6.08;78.11;99291.13;1087287;54;20287;-82
2021/12/01 00:48:48;;;;;;;1.77;0.60;;;;;;;6.13;78.24;99279.28;1087574;54;20061;-79
2021/12/01 00:49:50;;;;;;;1.20;0.50;;;;;;;6.15;78.19;99272.00;1087613;54;20034;-80
2021/12/01 00:50:56;;;;;;;1.83;0.70;;;;;;;6.08;78.56;99272.53;1089072;46;20039;-80
2021/12/01 00:52:00;;;;;;;1.42;0.50;;;;;;;6.17;78.50;99270.03;1087166;54;20030;-81
2021/12/01 00:53:05;;;;;;;2.58;0.50;;;;;;;6.13;78.61;99273.97;1086799;54;20042;-81
2021/12/01 00:54:09;;;;;;;1.40;0.60;;;;;;;6.15;78.74;99267.53;1086340;54;20038;-78
2021/12/01 00:55:11;;;;;;;1.60;0.60;;;;;;;6.14;78.54;99265.03;1085860;54;20042;-79
2021/12/01 00:56:15;;;;;;;2.63;0.60;;;;;;;6.11;78.69;99276.72;1085653;54;20045;-79
2021/12/01 00:57:17;;;;;;;1.52;0.50;;;;;;;6.08;79.11;99272.53;1085758;54;20069;-79
2021/12/01 00:58:21;;;;;;;1.70;0.60;;;;;;;6.16;78.68;99269.22;1085304;54;20057;-81
2021/12/01 00:59:24;;;;;;;1.13;0.40;;;;;;;6.14;78.82;99276.47;1085401;54;20065;-79
2021/12/01 01:00:30;;;;;;;1.45;0.50;;;;;;;6.11;78.68;99275.91;1085383;54;20065;-79
2021/12/01 01:01:32;;;;;;;1.17;0.50;;;;;;;6.08;78.92;99277.84;1085425;54;20045;-79
2021/12/01 01:02:37;;;;;;;1.33;0.50;;;;;;;6.16;78.83;99269.22;1085380;54;20078;-77
2021/12/01 01:03:41;;;;;;;1.05;0.50;;;;;;;6.17;78.70;99265.59;1085442;54;20038;-79
2021/12/01 01:04:45;;;;;;;1.27;0.50;;;;;;;6.15;78.72;99262.22;1085412;54;20038;-79
2021/12/01 01:05:50;;;;;;;1.08;0.40;;;;;;;6.13;78.83;99264.19;1085509;54;20062;-79
2021/12/01 01:06:52;;;;;;;1.55;0.45;;;;;;;6.14;79.03;99259.72;1085826;54;20073;-79
2021/12/01 01:07:56;;;;;;;1.80;0.50;;;;;;;6.11;79.12;99260.81;1085566;54;20046;-79
2021/12/01 01:09:01;;;;;;;1.42;0.40;;;;;;;6.18;78.92;99261.97;1086035;54;20045;-81
2021/12/01 01:10:15;;;;;;;3.78;0.80;;;;;;;6.28;78.54;99272.59;1085470;54;20038;-80
2021/12/01 01:16:28;;;;;;;2.03;0.57;;;;;;;6.18;78.41;99261.97;1085859;54;20038;-79
2021/12/01 01:17:36;;;;;;;1.17;0.43;;;;;;;6.17;78.48;99259.44;1085756;54;20106;-79
2021/12/01 01:18:43;;;;;;;1.20;0.60;;;;;;;6.16;78.56;99265.72;1086095;54;20066;-81
2021/12/01 01:19:49;;;;;;;1.35;0.50;;;;;;;6.25;78.23;99256.94;1086370;54;20090;-80
2021/12/01 01:20:51;;;;;;;1.38;0.40;;;;;;;6.22;78.50;99251.91;1086191;54;20062;-82
2021/12/01 01:21:56;;;;;;;3.80;0.93;;;;;;;6.16;79.04;99252.44;1086442;54;20090;-80
2021/12/01 01:22:57;;;;;;;1.48;0.60;;;;;;;6.19;79.13;99254.84;1086098;54;20038;-81
2021/12/01 01:24:03;;;;;;;1.33;0.50;;;;;;;6.19;79.00;99246.88;1086391;54;20093;-80
2021/12/01 01:25:07;;;;;;;1.63;0.50;;;;;;;6.18;79.01;99250.50;1086158;54;20038;-79
2021/12/01 01:26:15;;;;;;;1.70;0.60;;;;;;;6.15;79.16;99245.44;1086204;54;20068;-80
2021/12/01 01:27:20;;;;;;;1.58;0.50;;;;;;;6.20;79.12;99245.91;1086129;54;20045;-81
2021/12/01 01:28:21;;;;;;;1.55;0.63;;;;;;;6.12;79.09;99251.06;1086414;39;20519;-80
2021/12/01 01:29:26;;;;;;;2.20;0.60;;;;;;;6.08;79.16;99253.97;1086397;54;20038;-80
2021/12/01 01:30:29;;;;;;;1.67;0.50;;;;;;;6.12;79.46;99248.41;1086084;54;20173;-81
2021/12/01 01:31:34;;;;;;;1.73;0.57;;;;;;;6.15;79.48;99246.31;1085685;54;20061;-80
2021/12/01 01:32:35;;;;;;;1.33;0.50;;;;;;;6.25;79.21;99251.63;1085798;54;20054;-81
2021/12/01 01:33:40;;;;;;;1.55;0.60;;;;;;;6.21;79.06;99252.91;1085769;54;20063;-81
2021/12/01 01:34:44;;;;;;;2.10;0.50;;;;;;;6.23;79.36;99248.28;1085845;54;20034;-80
2021/12/01 01:35:49;;;;;;;1.58;0.50;;;;;;;6.24;79.25;99248.16;1085430;54;20058;-81
2021/12/01 01:36:53;;;;;;;1.50;0.47;;;;;;;6.25;79.10;99248.97;1085730;54;20038;-80
2021/12/01 01:37:55;;;;;;;1.10;0.40;;;;;;;6.17;79.57;99243.50;1086025;54;20058;-80
2021/12/01 01:39:00;;;;;;;1.90;0.55;;;;;;;6.15;79.52;99248.97;1085854;54;20061;-80
2021/12/01 01:40:03;;;;;;;2.20;0.50;;;;;;;6.28;79.08;99246.06;1085622;54;20061;-80
2021/12/01 01:41:10;;;;;;;1.33;0.40;;;;;;;6.21;79.46;99245.75;1085747;54;20038;-80
2021/12/01 01:42:12;;;;;;;1.80;0.60;;;;;;;6.17;79.53;99243.50;1085899;54;20041;-81
2021/12/01 01:43:17;;;;;;;1.88;0.60;;;;;;;6.27;79.46;99243.56;1085763;54;20038;-80
2021/12/01 01:44:21;;;;;;;1.92;0.50;;;;;;;6.19;79.43;99238.91;1085936;54;20086;-79
2021/12/01 01:45:24;;;;;;;1.42;0.50;;;;;;;6.29;79.32;99239.78;1085986;54;20045;-78
2021/12/01 01:46:34;;;;;;;2.38;0.47;;;;;;;6.17;79.39;99248.81;1085983;54;20098;-80
2021/12/01 01:47:35;;;;;;;1.98;0.65;;;;;;;6.07;79.50;99238.19;1086009;54;20073;-79
2021/12/01 01:48:49;;;;;;;1.55;0.60;;;;;;;6.15;79.57;99240.16;1086280;39;20461;-81
2021/12/01 01:49:55;;;;;;;1.55;0.60;;;;;;;6.13;79.74;99236.81;1086295;54;20054;-80
2021/12/01 01:51:04;;;;;;;0.88;0.40;;;;;;;6.12;79.68;99229.81;1086150;54;20038;-82
2021/12/01 01:52:06;;;;;;;1.98;0.60;;;;;;;6.12;79.19;99224.50;1086371;54;20098;-80
2021/12/01 01:53:13;;;;;;;1.73;0.50;;;;;;;6.22;79.12;99225.38;1086445;54;20738;-80
2021/12/01 01:54:16;;;;;;;1.33;0.40;;;;;;;6.24;79.13;99224.25;1086266;54;20061;-80
2021/12/01 01:55:20;;;;;;;2.47;0.50;;;;;;;6.22;79.13;99220.06;1086326;54;20038;-81
2021/12/01 01:56:22;;;;;;;1.13;0.40;;;;;;;6.26;78.99;99221.47;1085934;54;20102;-81
2021/12/01 01:57:26;;;;;;;1.83;0.60;;;;;;;6.17;79.28;99222.28;1086375;39;21165;-82
2021/12/01 01:58:29;;;;;;;0.98;0.50;;;;;;;6.18;79.50;99219.50;1086026;54;20069;-79
2021/12/01 01:59:33;;;;;;;1.65;0.47;;;;;;;6.14;79.33;99212.78;1086327;39;20371;-81
2021/12/01 02:00:44;;;;;;;1.02;0.40;;;;;;;6.12;79.47;99221.88;1086185;54;20153;-80
2021/12/01 02:01:53;;;;;;;;;;;;;;;6.14;79.21;99227.88;1086171;54;20034;-80
2021/12/01 02:02:58;;;;;;;2.63;0.70;;;;;;;6.18;79.25;99224.81;1085978;54;19934;-81
2021/12/01 02:04:02;;;;;;;2.40;0.75;;;;;;;6.11;79.43;99217.53;1085719;54;20038;-80
2021/12/01 02:05:05;;;;;;;2.00;0.60;;;;;;;6.16;79.24;99215.28;1086571;54;20049;-81
2021/12/01 02:06:14;;;;;;;2.58;0.80;;;;;;;6.19;79.39;99210.53;1087020;54;20031;-81
2021/12/01 02:07:15;;;;;;;1.65;0.60;;;;;;;6.17;79.04;99212.53;1087827;46;20111;-81
2021/12/01 02:08:26;;;;;;;1.60;0.50;;;;;;;6.17;79.45;99209.00;1089244;46;20041;-82
2021/12/01 02:09:29;;;;;;;1.10;0.40;;;;;;;6.20;79.15;99206.91;1088225;47;20042;-80
2021/12/01 02:10:41;;;;;;;1.77;0.60;;;;;;;6.20;79.40;99206.09;1087759;54;20018;-80
2021/12/01 02:11:43;;;;;;;2.33;0.60;;;;;;;6.14;79.65;99209.31;1087848;54;20027;-81
2021/12/01 02:12:54;;;;;;;1.80;0.50;;;;;;;6.20;79.63;99200.78;1088008;54;20037;-82
2021/12/01 02:13:56;;;;;;;1.30;0.50;;;;;;;6.21;79.24;99202.47;1087117;54;20030;-80
2021/12/01 02:15:04;;;;;;;1.85;0.50;;;;;;;6.23;79.21;99196.03;1086922;54;20038;-81
2021/12/01 02:16:06;;;;;;;1.50;0.50;;;;;;;6.28;79.15;99198.28;1086620;54;20035;-81
2021/12/01 02:17:11;;;;;;;1.67;0.65;;;;;;;6.37;79.13;99191.31;1086360;54;20039;-80
2021/12/01 02:18:12;;;;;;;2.10;0.80;;;;;;;6.20;79.08;99192.81;1086468;54;20883;-81
2021/12/01 02:19:17;;;;;;;1.52;0.57;;;;;;;6.22;79.07;99194.34;1087369;54;20127;-82
2021/12/01 02:20:22;;;;;;;1.75;0.75;;;;;;;6.14;79.08;99196.84;1088777;39;20407;-81
2021/12/01 02:21:29;;;;;;;3.30;0.60;;;;;;;6.10;79.33;99187.47;1087948;46;20037;-82
2021/12/01 02:22:34;;;;;;;2.95;0.55;;;;;;;6.18;79.29;99192.09;1087884;54;21050;-80
2021/12/01 02:23:40;;;;;;;1.98;0.50;;;;;;;6.20;79.06;99179.53;1087794;54;20066;-82
2021/12/01 02:24:47;;;;;;;1.00;0.47;;;;;;;6.18;78.82;99177.03;1088074;47;20038;-81
2021/12/01 02:25:49;;;;;;;1.23;0.52;;;;;;;6.18;78.67;99185.00;1088426;47;20038;-82
2021/12/01 02:27:01;;;;;;;2.22;0.52;;;;;;;6.17;78.45;99185.13;1087903;54;20042;-80
2021/12/01 02:28:07;;;;;;;1.70;0.50;;;;;;;6.25;78.44;99177.31;1088318;47;20047;-80
2021/12/01 02:29:13;;;;;;;1.67;0.60;;;;;;;6.16;78.51;99176.34;1088086;47;20018;-80
2021/12/01 02:30:15;;;;;;;1.25;0.55;;;;;;;6.08;78.41;99176.19;1088828;47;20746;-81
2021/12/01 02:31:21;;;;;;;2.80;1.00;;;;;;;6.12;78.62;99174.91;1087135;54;20046;-80
2021/12/01 02:32:23;;;;;;;2.10;0.60;;;;;;;6.18;78.57;99165.56;1087302;54;20295;-83
2021/12/01 02:33:28;;;;;;;1.65;0.50;;;;;;;6.06;78.23;99168.34;1086757;54;20054;-82
2021/12/01 02:34:33;;;;;;;2.38;0.63;;;;;;;6.13;78.51;99168.63;1086880;54;20053;-80
2021/12/01 02:35:40;;;;;;;1.60;0.60;;;;;;;6.13;78.28;99170.47;1086758;54;20075;-80
2021/12/01 02:36:47;;;;;;;1.60;0.50;;;;;;;6.10;78.00;99168.91;1086810;54;20038;-80
2021/12/01 02:37:49;;;;;;;1.58;0.50;;;;;;;6.19;78.08;99161.94;1087219;39;20418;-80
2021/12/01 02:38:54;;;;;;;1.17;0.43;;;;;;;6.25;77.79;99158.72;1086668;54;20038;-81
